Time;durP1;ratioP1;P1;durP2;ratioP2;P2;SDS_P1;SDS_P2;PMS_P1;PMS_P2;Temp;Humidity;BMP_temperature;BMP_pressure;BME280_temperature;BME280_humidity;BME280_pressure;Samples;Min_cycle;Max_cycle;Signal;HPM_P1;HPM_P2
2021/12/22 00:01:10;;;;;;;21.13;13.95;;;-3274.00;76.90;;;-5.20;83.55;96765.59;4964628;28;20166;-60
2021/12/22 00:03:36;;;;;;;21.35;13.05;;;-3273.90;76.90;;;-5.20;83.68;96763.03;4972672;28;20237;-60
2021/12/22 00:06:02;;;;;;;25.23;14.70;;;-3274.00;76.80;;;-5.20;83.69;96763.03;4958791;28;20129;-62
2021/12/22 00:08:29;;;;;;;19.90;13.20;;;-3274.00;76.80;;;-5.21;83.88;96766.47;4964438;28;20118;-60
2021/12/22 00:10:55;;;;;;;26.23;14.15;;;-3273.90;76.90;;;-5.23;83.91;96760.59;4967774;28;20572;-60
2021/12/22 00:13:20;;;;;;;21.10;13.45;;;-3273.90;77.10;;;-5.25;83.69;96764.97;4949182;28;20043;-60
2021/12/22 00:15:46;;;;;;;21.02;13.98;;;-3273.90;77.20;;;-5.27;83.90;96767.63;4948842;28;20067;-62
2021/12/22 00:18:12;;;;;;;23.83;14.30;;;-3273.90;77.20;;;-5.27;84.26;96761.66;4963025;28;20043;-62
2021/12/22 00:20:38;;;;;;;22.90;14.57;;;-3273.90;77.40;;;-5.28;84.23;96762.56;4963197;28;20031;-63
2021/12/22 00:23:03;;;;;;;23.08;14.13;;;-3273.90;77.40;;;-5.30;84.02;96765.22;4970248;28;20043;-60
2021/12/22 00:25:29;;;;;;;22.77;14.63;;;-3273.90;77.30;;;-5.31;84.37;96765.28;4967003;28;20062;-60
2021/12/22 00:27:56;;;;;;;21.15;14.27;;;-3273.90;77.20;;;-5.34;84.19;96760.31;4967664;28;20035;-59
2021/12/22 00:30:24;;;;;;;20.15;13.50;;;-3273.80;77.20;;;-5.34;84.08;96760.31;4974684;28;20035;-61
2021/12/22 00:32:52;;;;;;;23.85;14.88;;;-3273.80;77.10;;;-5.36;84.00;96769.81;4971124;28;20053;-62
2021/12/22 00:35:20;;;;;;;22.85;13.85;;;-3273.80;77.10;;;-5.37;84.14;96763.03;4955624;28;20050;-61
2021/12/22 00:37:46;;;;;;;23.42;14.23;;;-3273.80;77.30;;;-5.37;84.13;96770.72;4951446;28;20072;-62
2021/12/22 00:40:12;;;;;;;24.55;14.63;;;-3273.80;77.10;;;-5.40;84.18;96768.31;4952199;28;20043;-59
2021/12/22 00:42:38;;;;;;;23.13;14.50;;;-3273.80;77.10;;;-5.42;84.42;96765.00;4967068;28;20042;-60
2021/12/22 00:45:04;;;;;;;22.70;14.38;;;-3273.80;77.30;;;-5.44;84.30;96759.91;4966299;28;20043;-60
2021/12/22 00:47:30;;;;;;;22.33;14.50;;;-3273.80;77.40;;;-5.43;84.50;96768.44;4973536;28;20027;-60
2021/12/22 00:49:57;;;;;;;25.38;14.70;;;-3273.70;77.60;;;-5.43;85.04;96769.28;4960244;28;20106;-59
2021/12/22 00:52:23;;;;;;;23.65;14.88;;;-3273.80;77.80;;;-5.42;84.78;96777.81;4958526;23;20187;-63
2021/12/22 00:54:48;;;;;;;25.65;13.82;;;-3273.80;78.00;;;-5.43;84.88;96776.13;4934518;28;20048;-63
2021/12/22 00:57:16;;;;;;;23.45;14.77;;;-3273.80;78.00;;;-5.41;85.14;96779.47;4907774;29;20561;-64
2021/12/22 00:59:43;;;;;;;28.38;15.30;;;-3273.80;78.50;;;-5.41;85.26;96774.34;4914155;29;20388;-65
2021/12/22 01:02:09;;;;;;;26.15;16.50;;;-3273.80;78.60;;;-5.38;85.31;96776.75;4897502;29;20531;-66
2021/12/22 01:04:36;;;;;;;22.92;14.82;;;-3273.80;78.70;;;-5.38;85.25;96774.19;4915820;29;20471;-65
2021/12/22 01:07:01;;;;;;;24.23;15.18;;;-3273.80;78.50;;;-5.40;85.03;96771.72;4931458;28;20039;-65
2021/12/22 01:09:27;;;;;;;24.50;14.70;;;-3273.80;78.40;;;-5.39;85.34;96777.66;4933045;28;20126;-66
2021/12/22 01:11:53;;;;;;;30.05;15.85;;;-3273.80;78.50;;;-5.40;85.46;96776.00;4931429;29;20052;-66
2021/12/22 01:14:20;;;;;;;23.83;15.45;;;-3273.80;78.60;;;-5.39;85.80;96780.22;4915442;29;20115;-65
2021/12/22 01:16:48;;;;;;;29.73;16.02;;;-3273.80;78.70;;;-5.39;85.65;96793.03;4915255;28;20489;-65
2021/12/22 01:19:23;;;;;;;25.65;15.88;;;-3273.80;78.80;;;-5.40;85.82;96786.25;4916555;29;20463;-65
2021/12/22 01:21:58;;;;;;;26.85;16.45;;;-3273.80;78.80;;;-5.38;86.07;96794.69;4916467;29;20047;-65
2021/12/22 01:24:33;;;;;;;29.65;17.10;;;-3273.90;79.00;;;-5.38;85.97;96794.69;4931514;29;20036;-64
2021/12/22 01:27:08;;;;;;;27.20;16.23;;;-3273.90;78.90;;;-5.39;86.06;96803.31;4911653;29;20036;-64
2021/12/22 01:29:36;;;;;;;25.50;16.30;;;-3273.90;79.00;;;-5.39;86.49;96793.88;4892674;29;20040;-64
2021/12/22 01:32:02;;;;;;;26.40;15.75;;;-3273.90;79.10;;;-5.38;86.13;96799.84;4912248;29;20054;-64
2021/12/22 01:34:28;;;;;;;27.42;15.55;;;-3273.80;78.90;;;-5.37;85.98;96793.78;4901356;29;20703;-65
2021/12/22 01:36:54;;;;;;;29.60;15.57;;;-3273.80;78.70;;;-5.39;85.75;96795.59;4924712;28;20082;-64
2021/12/22 01:39:20;;;;;;;27.40;16.50;;;-3273.80;78.40;;;-5.39;85.80;96798.19;4915422;29;20035;-64
2021/12/22 01:41:45;;;;;;;24.98;15.45;;;-3273.80;78.20;;;-5.40;85.60;96799.06;4915047;29;20032;-64
2021/12/22 01:44:13;;;;;;;26.50;15.05;;;-3273.80;78.10;;;-5.43;85.56;96783.81;4930957;28;20091;-64
2021/12/22 01:49:50;;;;;;;23.83;15.30;;;-3273.80;78.00;;;-5.46;86.23;96786.53;4911658;29;20040;-64
2021/12/22 01:52:19;;;;;;;24.85;15.07;;;-3273.70;77.70;;;-5.48;85.70;96778.09;4914885;29;20515;-65
2021/12/22 01:55:14;;;;;;;26.05;15.27;;;-3273.70;77.70;;;-5.47;86.33;96782.31;4913455;28;20135;-64
2021/12/22 01:57:45;;;;;;;27.35;15.10;;;-3273.80;78.20;;;-5.46;86.03;96786.53;4939499;28;20135;-64
2021/12/22 02:00:12;;;;;;;27.17;15.02;;;-3273.80;78.60;;;-5.46;85.73;96787.38;4915098;29;20032;-65
2021/12/22 02:02:37;;;;;;;27.50;14.80;;;-3273.80;78.40;;;-5.47;85.55;96785.72;4932160;28;20111;-65
2021/12/22 02:05:04;;;;;;;25.02;14.50;;;-3273.70;78.20;;;-5.45;85.93;96783.06;4913962;28;20424;-64
2021/12/22 02:07:29;;;;;;;22.60;13.95;;;-3273.80;78.40;;;-5.46;85.62;96783.97;4932174;28;20110;-64
2021/12/22 02:10:06;;;;;;;24.17;14.38;;;-3273.70;78.20;;;-5.48;85.49;96785.78;4912644;29;20071;-64
2021/12/22 02:12:37;;;;;;;21.65;15.07;;;-3273.70;78.00;;;-5.50;85.75;96790.16;4930696;29;20107;-65
2021/12/22 02:15:04;;;;;;;23.58;14.50;;;-3273.70;78.30;;;-5.51;86.16;96789.31;4929856;28;20055;-65
2021/12/22 02:17:30;;;;;;;24.35;14.13;;;-3273.70;78.40;;;-5.52;85.97;96781.72;4913982;29;20040;-65
2021/12/22 02:19:56;;;;;;;29.70;15.43;;;-3273.70;78.30;;;-5.53;85.63;96778.31;4914453;29;20594;-64
2021/12/22 02:22:23;;;;;;;25.30;14.60;;;-3273.70;77.90;;;-5.55;85.16;96783.53;4931655;28;20046;-64
2021/12/22 02:24:52;;;;;;;25.10;14.38;;;-3273.70;77.60;;;-5.57;85.36;96780.22;4913733;28;20087;-64
2021/12/22 02:30:21;;;;;;;23.15;14.20;;;-3273.60;77.40;;;-5.61;85.09;96778.69;4922194;29;20055;-64
2021/12/22 02:35:41;;;;;;;29.05;14.77;;;-3273.50;77.20;;;-5.67;84.93;96791.78;4915376;29;20040;-65
2021/12/22 02:38:13;;;;;;;23.92;14.65;;;-3273.50;77.00;;;-5.69;85.06;96788.47;4925709;29;20192;-65
2021/12/22 02:40:38;;;;;;;23.13;14.43;;;-3273.50;77.60;;;-5.74;85.21;96782.75;4906643;29;20067;-65
2021/12/22 02:43:05;;;;;;;27.70;15.52;;;-3273.50;77.70;;;-5.75;85.19;96786.22;4910696;29;20036;-65
2021/12/22 02:45:31;;;;;;;27.70;14.45;;;-3273.50;77.50;;;-5.77;85.33;96785.44;4919740;29;20032;-64
2021/12/22 02:47:57;;;;;;;22.83;14.68;;;-3273.50;77.40;;;-5.77;85.24;96787.19;4929636;29;20040;-64
2021/12/22 02:50:23;;;;;;;24.13;14.15;;;-3273.50;77.50;;;-5.78;85.39;96786.34;4929985;29;20035;-65
2021/12/22 02:53:02;;;;;;;23.20;14.70;;;-3273.40;77.60;;;-5.80;85.24;96785.59;4929311;28;20043;-64
2021/12/22 02:55:32;;;;;;;26.80;14.57;;;-3273.40;77.70;;;-5.81;85.13;96789.06;4934762;29;20114;-65
2021/12/22 02:58:03;;;;;;;24.42;15.48;;;-3273.40;77.80;;;-5.82;85.67;96789.97;4911693;29;20593;-64
2021/12/22 03:00:48;;;;;;;26.13;16.83;;;-3273.40;78.20;;;-5.86;86.13;96789.28;4929538;29;20059;-65
2021/12/22 03:06:04;;;;;;;38.00;19.63;;;-3273.30;79.60;;;-5.93;86.76;96794.78;4929997;29;20079;-65
2021/12/22 03:08:29;;;;;;;37.60;19.70;;;-3273.20;80.00;;;-5.94;87.05;96793.13;4914894;29;20054;-65
2021/12/22 03:10:55;;;;;;;42.22;19.55;;;-3273.20;80.30;;;-5.92;87.26;96802.38;4928373;28;20035;-65
2021/12/22 03:13:22;;;;;;;32.00;18.40;;;-3273.30;80.00;;;-5.90;87.09;96800.59;4898524;29;20059;-65
2021/12/22 03:15:48;;;;;;;31.73;18.85;;;-3273.30;79.80;;;-5.89;87.08;96809.06;4898714;29;20050;-65
2021/12/22 03:18:14;;;;;;;35.50;19.55;;;-3273.30;79.50;;;-5.93;86.86;96812.72;4930102;29;20036;-65
2021/12/22 03:20:40;;;;;;;37.13;18.77;;;-3273.20;79.70;;;-5.94;86.78;96813.63;4914664;29;20546;-66
2021/12/22 03:23:06;;;;;;;59.88;29.77;;;-3273.20;79.70;;;-5.97;86.95;96795.81;4913837;28;20110;-64
2021/12/22 03:25:32;;;;;;;56.72;32.78;;;-3273.20;80.00;;;-5.96;87.02;96802.59;4895666;29;20523;-65
2021/12/22 03:28:03;;;;;;;42.47;22.33;;;-3273.30;79.60;;;-5.97;87.05;96798.38;4906373;29;20036;-62
2021/12/22 03:30:29;;;;;;;37.35;21.02;;;-3273.30;79.20;;;-6.01;87.01;96804.56;4915037;29;20091;-64
2021/12/22 03:32:54;;;;;;;31.40;18.90;;;-3273.20;79.10;;;-6.03;86.55;96808.94;4914175;28;20039;-64
2021/12/22 03:35:21;;;;;;;34.60;18.95;;;-3273.20;79.10;;;-6.05;86.87;96808.16;4910743;29;20044;-65
2021/12/22 03:37:59;;;;;;;34.55;18.45;;;-3273.10;78.70;;;-6.09;86.90;96804.94;4880771;29;20128;-65
2021/12/22 03:40:25;;;;;;;35.40;18.90;;;-3273.10;78.80;;;-6.12;86.87;96797.34;4911140;29;20059;-65
2021/12/22 03:42:51;;;;;;;37.42;19.33;;;-3273.10;78.60;;;-6.13;86.43;96807.66;4898869;28;20392;-65
2021/12/22 03:45:17;;;;;;;36.30;18.85;;;-3273.10;78.50;;;-6.15;86.30;96806.91;4913658;29;20050;-63
2021/12/22 03:47:43;;;;;;;33.20;17.80;;;-3273.00;78.30;;;-6.20;86.45;96800.28;4914049;29;20135;-64
2021/12/22 03:50:09;;;;;;;33.47;17.80;;;-3273.00;78.20;;;-6.22;86.28;96807.19;4929870;29;20127;-64
2021/12/22 03:52:35;;;;;;;32.00;19.77;;;-3273.00;78.20;;;-6.24;86.55;96803.88;4916051;29;20054;-64
2021/12/22 03:55:02;;;;;;;31.52;19.75;;;-3273.00;78.80;;;-6.26;86.65;96803.13;4916688;28;20380;-63
2021/12/22 03:57:28;;;;;;;37.80;22.48;;;-3273.00;78.50;;;-6.30;86.60;96799.03;4916143;29;20727;-64
2021/12/22 03:59:57;;;;;;;41.75;24.13;;;-3272.90;78.80;;;-6.31;86.81;96804.22;4917559;29;20036;-65
2021/12/22 04:02:23;;;;;;;73.18;38.03;;;-3272.90;79.20;;;-6.34;86.88;96804.34;4933562;29;20028;-65
2021/12/22 04:04:50;;;;;;;54.33;24.35;;;-3272.90;79.20;;;-6.34;87.01;96807.72;4932052;28;20083;-65
2021/12/22 04:07:16;;;;;;;32.03;17.92;;;-3272.80;79.30;;;-6.36;87.13;96804.41;4933111;29;20089;-63
2021/12/22 04:09:42;;;;;;;36.25;19.95;;;-3272.90;79.60;;;-6.38;87.47;96801.09;4917181;29;20040;-64
2021/12/22 04:12:09;;;;;;;34.55;18.73;;;-3272.80;79.50;;;-6.42;87.40;96802.13;4917350;29;20087;-64
2021/12/22 04:14:34;;;;;;;35.55;18.73;;;-3272.80;79.80;;;-6.44;87.27;96821.84;4916965;29;20044;-64
2021/12/22 04:17:00;;;;;;;35.28;19.23;;;-3272.80;79.50;;;-6.44;87.37;96824.41;4932525;28;20047;-64
2021/12/22 04:19:26;;;;;;;36.60;19.05;;;-3272.70;79.50;;;-6.45;87.00;96827.03;4932609;29;20032;-64
2021/12/22 04:21:52;;;;;;;31.45;17.45;;;-3272.80;79.20;;;-6.46;86.62;96827.94;4933066;29;20038;-64
2021/12/22 04:24:18;;;;;;;30.55;17.30;;;-3272.80;78.70;;;-6.50;86.37;96828.06;4932751;29;20118;-64
2021/12/22 04:26:44;;;;;;;31.40;16.80;;;-3272.70;78.00;;;-6.54;86.16;96833.41;4917201;29;20035;-64
2021/12/22 04:29:11;;;;;;;35.15;20.83;;;-3272.70;78.10;;;-6.57;86.20;96836.06;4932485;29;20420;-64
2021/12/22 04:31:37;;;;;;;35.90;21.40;;;-3272.60;77.80;;;-6.63;86.09;96831.22;4932433;29;20115;-64
2021/12/22 04:34:07;;;;;;;59.33;35.42;;;-3272.50;77.80;;;-6.66;86.24;96831.38;4929419;29;20547;-66
2021/12/22 04:36:34;;;;;;;34.20;19.37;;;-3272.40;78.20;;;-6.74;86.48;96838.53;4921478;29;20558;-64
2021/12/22 04:39:00;;;;;;;31.02;19.23;;;-3272.30;78.60;;;-6.79;86.26;96831.03;4913021;29;20300;-63
2021/12/22 04:41:26;;;;;;;27.90;17.48;;;-3272.30;78.70;;;-6.82;86.60;96831.19;4883151;29;20129;-63
2021/12/22 04:43:53;;;;;;;30.58;16.70;;;-3272.30;79.10;;;-6.90;86.73;96823.84;4932684;29;20059;-64
2021/12/22 04:46:21;;;;;;;26.85;16.05;;;-3272.10;79.50;;;-6.93;87.14;96821.41;4914864;29;20589;-63
2021/12/22 04:48:47;;;;;;;28.40;15.43;;;-3272.20;79.70;;;-6.96;86.90;96823.28;4932206;28;20031;-65
2021/12/22 04:51:22;;;;;;;25.20;15.32;;;-3272.10;79.60;;;-7.03;87.27;96822.69;4916549;29;20367;-63
2021/12/22 04:53:54;;;;;;;29.45;16.83;;;-3272.10;80.10;;;-7.05;87.24;96829.59;4917742;29;20183;-64
2021/12/22 04:56:19;;;;;;;26.38;16.20;;;-3272.00;80.00;;;-7.07;87.18;96825.44;4935176;29;20040;-64
2021/12/22 04:58:45;;;;;;;29.23;15.93;;;-3272.10;79.70;;;-7.10;87.25;96828.94;4925496;28;20558;-63
2021/12/22 05:01:11;;;;;;;25.17;14.60;;;-3272.10;79.90;;;-7.10;87.39;96821.28;4916151;29;20063;-64
2021/12/22 05:03:37;;;;;;;32.30;21.23;;;-3272.10;79.50;;;-7.09;87.42;96815.28;4913120;29;20119;-64
2021/12/22 05:06:02;;;;;;;40.30;24.58;;;-3272.10;79.70;;;-7.07;86.97;96821.16;4926319;29;20098;-64
2021/12/22 05:08:29;;;;;;;35.35;20.70;;;-3272.10;79.30;;;-7.05;86.96;96819.34;4932063;29;20037;-64
2021/12/22 05:10:55;;;;;;;22.90;14.73;;;-3272.20;79.40;;;-7.03;86.91;96821.84;4931295;28;20128;-67
2021/12/22 05:13:21;;;;;;;23.40;14.73;;;-3272.20;79.20;;;-7.03;86.98;96817.56;4912696;29;20048;-64
2021/12/22 05:15:47;;;;;;;22.33;13.70;;;-3272.20;79.00;;;-7.03;86.97;96819.28;4912883;29;20118;-64
2021/12/22 05:20:38;;;;;;;22.63;14.38;;;-3272.20;78.80;;;-7.07;86.82;96828.81;4913336;29;20364;-64
2021/12/22 05:23:04;;;;;;;20.67;13.50;;;-3272.10;78.70;;;-7.07;86.63;96825.44;4894558;29;21996;-63
2021/12/22 05:25:30;;;;;;;23.63;13.85;;;-3272.10;78.70;;;-7.07;86.57;96830.53;4912740;29;20099;-64
2021/12/22 05:27:56;;;;;;;21.10;13.20;;;-3272.20;78.60;;;-7.06;87.12;96827.94;4913909;29;20433;-64
2021/12/22 05:30:22;;;;;;;20.75;13.85;;;-3272.30;78.40;;;-7.05;86.62;96824.47;4897067;29;20080;-64
2021/12/22 05:32:47;;;;;;;20.48;13.75;;;-3272.30;78.50;;;-7.07;86.45;96831.38;4931053;28;20087;-64
2021/12/22 05:35:13;;;;;;;20.00;13.40;;;-3272.20;78.20;;;-7.05;86.66;96827.03;4915079;29;20138;-64
2021/12/22 05:37:39;;;;;;;22.77;14.02;;;-3272.20;78.20;;;-7.05;86.73;96824.47;4928546;29;20062;-65
2021/12/22 05:40:07;;;;;;;22.52;13.43;;;-3272.30;78.30;;;-7.04;86.39;96825.31;4941354;28;20447;-65
2021/12/22 05:42:33;;;;;;;21.00;14.02;;;-3272.20;78.20;;;-7.05;86.28;96829.59;4911306;29;20047;-67
2021/12/22 05:44:59;;;;;;;21.15;13.80;;;-3272.20;78.10;;;-7.06;86.45;96827.94;4908420;29;20056;-67
2021/12/22 05:47:25;;;;;;;21.02;14.23;;;-3272.20;78.00;;;-7.07;86.39;96831.38;4915277;29;20351;-65
2021/12/22 05:49:51;;;;;;;20.15;13.32;;;-3272.20;77.80;;;-7.07;85.92;96836.50;4931192;29;20032;-66
2021/12/22 05:52:17;;;;;;;20.92;13.13;;;-3272.20;77.60;;;-7.06;86.01;96827.94;4930276;29;20414;-67
2021/12/22 05:54:43;;;;;;;19.73;12.88;;;-3272.20;77.30;;;-7.11;85.58;96835.78;4915247;29;20036;-65
2021/12/22 05:57:09;;;;;;;21.77;12.82;;;-3272.10;77.10;;;-7.14;85.62;96829.97;4882685;29;20118;-66
2021/12/22 05:59:35;;;;;;;19.33;13.15;;;-3272.10;77.00;;;-7.14;85.46;96819.75;4899550;29;20372;-66
2021/12/22 06:02:01;;;;;;;20.90;12.75;;;-3272.10;76.70;;;-7.16;85.44;96822.38;4914880;29;20038;-67
2021/12/22 06:04:26;;;;;;;20.33;12.88;;;-3272.10;76.90;;;-7.19;85.53;96814.84;4899131;29;20131;-64
2021/12/22 06:06:52;;;;;;;20.52;13.27;;;-3272.10;76.80;;;-7.23;85.41;96820.97;4909988;29;20107;-64
2021/12/22 06:09:18;;;;;;;22.83;13.80;;;-3272.00;76.80;;;-7.23;85.18;96822.69;4916568;29;20503;-65
2021/12/22 06:11:44;;;;;;;23.95;14.70;;;-3272.00;76.80;;;-7.26;85.17;96817.69;4915025;29;20036;-65
2021/12/22 06:14:10;;;;;;;19.65;13.82;;;-3272.00;76.90;;;-7.26;85.27;96810.84;4897747;29;20397;-66
2021/12/22 06:16:36;;;;;;;20.60;13.77;;;-3272.00;76.90;;;-7.26;85.46;96822.81;4914890;29;20062;-64
2021/12/22 06:19:04;;;;;;;23.77;13.80;;;-3272.00;77.40;;;-7.26;85.73;96825.34;4913849;29;20587;-64
2021/12/22 06:21:31;;;;;;;23.85;14.05;;;-3272.00;77.40;;;-7.28;85.28;96822.03;4899815;29;20103;-64
2021/12/22 06:23:57;;;;;;;34.63;20.50;;;-3272.00;77.00;;;-7.29;85.66;96823.75;4914427;29;20051;-64
2021/12/22 06:26:23;;;;;;;48.15;30.20;;;-3272.00;77.00;;;-7.26;85.46;96833.03;4895781;29;20040;-64
2021/12/22 06:28:50;;;;;;;31.10;17.90;;;-3272.00;77.20;;;-7.27;85.01;96828.81;4898190;29;20075;-64
2021/12/22 06:31:16;;;;;;;23.73;15.30;;;-3272.00;76.80;;;-7.27;84.82;96836.47;4918397;29;20518;-65
2021/12/22 06:33:42;;;;;;;21.65;13.43;;;-3272.00;76.40;;;-7.29;84.96;96839.09;4914737;29;20123;-64
2021/12/22 06:36:09;;;;;;;22.02;14.15;;;-3272.00;76.30;;;-7.31;84.93;96837.50;4912017;29;20123;-65
2021/12/22 06:38:35;;;;;;;23.25;14.25;;;-3272.00;76.20;;;-7.32;84.85;96838.41;4911165;29;20445;-65
2021/12/22 06:41:02;;;;;;;22.42;14.73;;;-3272.00;76.40;;;-7.33;85.16;96829.06;4912259;28;20028;-65
2021/12/22 06:43:28;;;;;;;23.83;14.60;;;-3272.00;76.90;;;-7.33;85.25;96836.72;4914402;29;20124;-66
2021/12/22 06:45:54;;;;;;;22.63;14.23;;;-3272.00;77.20;;;-7.31;85.59;96837.50;4919651;29;20565;-66
2021/12/22 06:48:20;;;;;;;21.20;13.95;;;-3272.00;77.30;;;-7.30;85.54;96839.16;4911512;29;20054;-66
2021/12/22 06:50:46;;;;;;;25.20;15.35;;;-3272.00;77.30;;;-7.26;85.40;96840.69;4895541;29;20590;-66
2021/12/22 06:53:14;;;;;;;25.33;14.85;;;-3272.10;77.40;;;-7.25;85.64;96842.34;4895434;29;20036;-66
2021/12/22 06:55:40;;;;;;;23.52;15.68;;;-3272.00;77.30;;;-7.25;85.73;96837.25;4924208;29;20035;-66
2021/12/22 06:58:06;;;;;;;22.60;14.43;;;-3272.00;77.70;;;-7.23;85.91;96836.31;4914254;29;20031;-66
2021/12/22 07:00:35;;;;;;;23.65;15.65;;;-3272.10;78.00;;;-7.20;85.83;96841.28;4915086;29;20040;-65
2021/12/22 07:03:01;;;;;;;24.80;15.88;;;-3272.10;78.10;;;-7.19;86.52;96837.00;4929407;28;20091;-65
2021/12/22 07:05:27;;;;;;;25.23;16.48;;;-3272.10;78.80;;;-7.16;86.66;96836.88;4913940;29;20040;-65
2021/12/22 07:07:52;;;;;;;26.55;16.88;;;-3272.10;78.90;;;-7.13;87.13;96842.69;4914871;29;20082;-65
2021/12/22 07:10:18;;;;;;;25.50;16.33;;;-3272.20;79.10;;;-7.11;87.18;96842.63;4913001;29;20299;-66
2021/12/22 07:12:48;;;;;;;26.95;16.50;;;-3272.30;79.20;;;-7.07;87.22;96836.50;4914866;29;20035;-66
2021/12/22 07:15:15;;;;;;;25.98;16.95;;;-3272.30;79.20;;;-7.04;87.16;96838.91;4898283;29;20468;-66
2021/12/22 07:17:43;;;;;;;29.83;16.90;;;-3272.30;79.20;;;-7.01;87.20;96831.16;4930418;29;20114;-65
2021/12/22 07:20:09;;;;;;;27.92;17.55;;;-3272.40;79.10;;;-7.00;87.41;96839.66;4914397;29;20130;-66
2021/12/22 07:22:35;;;;;;;44.38;26.30;;;-3272.40;79.60;;;-6.97;87.51;96837.78;4914132;29;20523;-66
2021/12/22 07:25:01;;;;;;;41.13;25.38;;;-3272.40;79.60;;;-6.93;87.67;96835.94;4897488;28;20036;-66
2021/12/22 07:27:34;;;;;;;32.70;20.15;;;-3272.40;79.80;;;-6.91;87.91;96837.53;4917916;29;20039;-65
2021/12/22 07:30:00;;;;;;;36.05;22.02;;;-3272.40;79.60;;;-6.88;87.79;96826.34;4919019;29;20038;-66
2021/12/22 07:32:26;;;;;;;30.95;20.20;;;-3272.50;79.50;;;-6.85;87.96;96832.13;4918212;29;20027;-66
2021/12/22 07:35:05;;;;;;;28.10;17.65;;;-3272.50;79.30;;;-6.81;88.39;96826.00;4917197;28;20040;-66
2021/12/22 07:37:39;;;;;;;28.50;16.92;;;-3272.60;79.10;;;-6.75;88.22;96832.59;4933662;29;20027;-66
2021/12/22 07:40:08;;;;;;;26.65;16.58;;;-3272.70;79.10;;;-6.71;88.51;96833.28;4934695;28;20032;-64
2021/12/22 07:42:34;;;;;;;26.63;16.98;;;-3272.80;79.20;;;-6.68;88.01;96841.66;4917759;29;20442;-65
2021/12/22 07:45:00;;;;;;;27.20;17.35;;;-3272.80;78.90;;;-6.66;87.84;96847.53;4932012;28;20048;-65
2021/12/22 07:47:25;;;;;;;26.40;16.83;;;-3272.80;78.80;;;-6.63;88.34;96838.91;4923051;29;20543;-65
2021/12/22 07:49:51;;;;;;;27.50;17.02;;;-3272.80;78.70;;;-6.60;87.80;96833.66;4914359;29;20508;-68
2021/12/22 07:52:17;;;;;;;23.88;16.63;;;-3272.80;78.70;;;-6.55;88.07;96830.00;4910550;29;20092;-71
2021/12/22 07:54:43;;;;;;;26.92;16.80;;;-3273.00;78.50;;;-6.51;87.99;96823.03;4906140;29;20036;-65
2021/12/22 07:57:09;;;;;;;30.17;16.73;;;-3273.00;78.30;;;-6.45;87.97;96835.53;4913603;29;20519;-66
2021/12/22 07:59:35;;;;;;;28.88;18.30;;;-3273.00;78.30;;;-6.42;87.92;96832.84;4908671;29;20115;-66
2021/12/22 08:02:00;;;;;;;25.00;16.67;;;-3273.10;78.40;;;-6.37;87.93;96828.34;4915253;29;20111;-65
2021/12/22 08:04:27;;;;;;;26.27;16.48;;;-3273.20;78.20;;;-6.32;87.78;96841.81;4917221;29;20127;-65
2021/12/22 08:06:55;;;;;;;27.52;16.70;;;-3273.20;78.10;;;-6.30;88.06;96834.88;4916747;28;20039;-64
2021/12/22 08:09:25;;;;;;;27.55;16.85;;;-3273.20;78.20;;;-6.25;88.00;96837.22;4917346;29;21901;-63
2021/12/22 08:11:53;;;;;;;29.70;16.75;;;-3273.30;78.10;;;-6.22;88.25;96827.69;4903069;29;20420;-65
2021/12/22 08:14:19;;;;;;;27.15;17.08;;;-3273.30;78.30;;;-6.16;88.35;96834.25;4915053;29;20044;-66
2021/12/22 08:16:45;;;;;;;26.02;16.60;;;-3273.40;78.40;;;-6.06;88.25;96847.47;4901962;29;20511;-65
2021/12/22 08:19:11;;;;;;;25.45;17.00;;;-3273.50;78.20;;;-5.99;88.39;96843.72;4934108;29;20036;-66
2021/12/22 08:21:37;;;;;;;28.77;17.75;;;-3273.60;78.10;;;-5.92;88.53;96851.06;4933140;29;20027;-66
2021/12/22 08:24:04;;;;;;;29.30;18.25;;;-3273.80;78.00;;;-5.84;88.19;96853.25;4916974;29;20503;-67
2021/12/22 08:26:30;;;;;;;31.67;17.58;;;-3273.80;78.10;;;-5.79;88.31;96851.31;4933167;29;20044;-66
2021/12/22 08:28:55;;;;;;;29.52;18.00;;;-3273.80;77.90;;;-5.75;88.26;96857.94;4917223;28;20055;-66
2021/12/22 08:31:21;;;;;;;31.05;17.88;;;-3273.90;78.00;;;-5.68;88.46;96859.31;4917136;29;20462;-66
2021/12/22 08:33:47;;;;;;;28.60;18.15;;;-3274.00;78.10;;;-5.59;88.67;96856.34;4917342;29;20035;-67
2021/12/22 08:39:02;;;;;;;29.23;17.67;;;-3274.30;77.90;;;-5.43;88.90;96855.59;4918751;28;20083;-66
2021/12/22 08:41:32;;;;;;;30.37;19.50;;;-3274.30;77.60;;;-5.35;88.85;96856.91;4933465;29;20046;-67
2021/12/22 08:44:01;;;;;;;29.63;17.63;;;-3274.50;77.50;;;-5.27;88.82;96853.97;4914991;29;20284;-66
2021/12/22 08:46:28;;;;;;;33.63;19.50;;;-3274.50;77.30;;;-5.18;88.89;96857.84;4898698;29;20426;-66
2021/12/22 08:48:54;;;;;;;31.63;20.10;;;-3274.60;77.30;;;-5.09;88.98;96863.34;4897910;28;20123;-67
2021/12/22 08:51:21;;;;;;;32.97;20.33;;;-3274.80;77.40;;;-5.01;88.80;96865.53;4898127;29;20036;-66
2021/12/22 08:53:47;;;;;;;29.60;18.35;;;-3274.80;76.70;;;-4.93;88.79;96866.81;4909465;29;20060;-65
2021/12/22 08:56:13;;;;;;;29.95;18.83;;;-3275.00;76.50;;;-4.82;88.74;96865.44;4913523;29;20534;-66
2021/12/22 08:58:39;;;;;;;32.03;19.90;;;-3275.10;76.10;;;-4.73;88.60;96859.88;4913933;29;20591;-66
2021/12/22 09:01:05;;;;;;;31.85;19.42;;;-3275.20;76.00;;;-4.62;88.76;96857.59;4897235;29;20040;-65
2021/12/22 09:03:32;;;;;;;30.65;19.42;;;-3275.30;75.80;;;-4.50;88.63;96856.97;4913418;29;20030;-66
2021/12/22 09:05:59;;;;;;;29.17;18.52;;;-3275.50;75.80;;;-4.40;88.77;96855.59;4916589;29;20024;-67
2021/12/22 09:08:24;;;;;;;29.33;18.45;;;-3275.60;75.70;;;-4.26;88.72;96860.03;4900009;29;20055;-66
2021/12/22 09:10:50;;;;;;;30.27;19.55;;;-3275.80;75.40;;;-4.15;88.71;96859.44;4932878;29;20032;-65
2021/12/22 09:13:17;;;;;;;32.05;19.95;;;-3275.80;75.00;;;-4.06;88.42;96871.84;4906432;29;20040;-70
2021/12/22 09:15:43;;;;;;;31.95;19.15;;;-3275.90;74.90;;;-3.95;88.61;96878.97;4910510;29;20046;-65
2021/12/22 09:18:09;;;;;;;33.00;19.48;;;-3276.00;74.50;;;-3.83;88.26;96881.72;4899852;29;20044;-65
2021/12/22 09:20:34;;;;;;;29.88;18.77;;;-3276.10;74.20;;;-3.73;87.87;96880.31;4885545;29;20036;-68
2021/12/22 09:23:00;;;;;;;30.77;18.73;;;-3276.30;74.00;;;-3.61;88.04;96885.72;4896191;29;20512;-66
2021/12/22 09:25:26;;;;;;;28.25;19.17;;;-3276.40;73.50;;;-3.51;87.82;96884.28;4912608;29;20654;-66
2021/12/22 09:27:52;;;;;;;33.33;21.02;;;-3276.50;73.20;;;-3.43;87.47;96887.25;4913475;29;20032;-65
2021/12/22 09:30:18;;;;;;;34.90;20.45;;;-3276.60;73.10;;;-3.31;87.31;96876.31;4913400;29;20040;-65
2021/12/22 09:32:43;;;;;;;34.38;21.45;;;-3276.70;72.80;;;-3.20;87.22;96871.38;4911872;29;20036;-67
2021/12/22 09:35:12;;;;;;;31.77;19.83;;;0.00;72.20;;;-3.12;87.12;96871.81;4929707;28;20059;-64
2021/12/22 09:37:38;;;;;;;30.60;19.77;;;0.10;72.60;;;-2.99;87.34;96871.09;4899776;29;20039;-66
2021/12/22 09:40:10;;;;;;;42.83;25.90;;;0.20;71.90;;;-2.87;87.09;96880.72;4930564;29;20047;-68
2021/12/22 09:42:37;;;;;;;56.60;34.65;;;0.40;71.80;;;-2.74;87.23;96880.81;4915944;29;20039;-65
2021/12/22 09:45:03;;;;;;;33.55;21.15;;;0.60;71.40;;;-2.64;86.64;96872.50;4901931;28;20040;-66
2021/12/22 09:47:37;;;;;;;30.73;19.52;;;0.70;70.80;;;-2.54;86.83;96863.28;4896352;29;20059;-65
2021/12/22 09:50:12;;;;;;;32.88;20.10;;;0.90;70.20;;;-2.39;86.39;96868.47;4920969;29;20036;-67
2021/12/22 09:52:38;;;;;;;33.20;20.55;;;1.10;69.30;;;-2.26;85.97;96861.69;4925031;29;20031;-67
2021/12/22 09:55:06;;;;;;;28.88;19.08;;;1.30;68.30;;;-2.12;85.82;96866.00;4913218;29;20155;-64
2021/12/22 09:57:32;;;;;;;29.10;18.73;;;1.60;68.00;;;-1.98;85.82;96860.84;4915020;29;20027;-65
2021/12/22 09:59:59;;;;;;;28.08;19.60;;;1.90;66.60;;;-1.81;85.51;96857.22;4929497;28;20046;-66
2021/12/22 10:02:29;;;;;;;43.83;27.48;;;2.20;66.20;;;-1.65;85.02;96857.94;4930762;29;20197;-62
2021/12/22 10:04:58;;;;;;;46.88;29.15;;;2.60;64.70;;;-1.47;85.32;96856.78;4913644;28;20075;-63